Time;durP1;ratioP1;P1;durP2;ratioP2;P2;SDS_P1;SDS_P2;PMS_P1;PMS_P2;Temp;Humidity;BMP_temperature;BMP_pressure;BME280_temperature;BME280_humidity;BME280_pressure;Samples;Min_cycle;Max_cycle;Signal;HPM_P1;HPM_P2
2024/02/20 00:01:46;;;;;;;8.55;4.72;;;;;;;;;;4990548;28;20054;-78
2024/02/20 00:04:11;;;;;;;10.27;5.05;;;;;;;;;;4990656;28;20027;-78
2024/02/20 00:06:37;;;;;;;11.70;5.00;;;;;;;;;;4991698;28;20037;-78
2024/02/20 00:09:02;;;;;;;8.02;4.75;;;;;;;;;;4991283;28;20030;-78
2024/02/20 00:11:28;;;;;;;8.98;5.20;;;;;;;;;;4991080;28;20493;-78
2024/02/20 00:13:53;;;;;;;9.18;5.18;;;;;;;;;;4995260;28;20060;-78
2024/02/20 00:16:19;;;;;;;14.32;6.97;;;;;;;;;;4991603;28;20065;-78
2024/02/20 00:18:44;;;;;;;10.63;4.95;;;;;;;;;;4989516;28;20030;-78
2024/02/20 00:21:10;;;;;;;10.88;5.40;;;;;;;;;;4991080;28;20107;-78
2024/02/20 00:23:36;;;;;;;8.40;5.17;;;;;;;;;;4991019;28;20070;-79
2024/02/20 00:26:01;;;;;;;12.65;5.68;;;;;;;;;;5002033;28;20301;-79
2024/02/20 00:28:26;;;;;;;10.18;5.00;;;;;;;;;;4991333;28;20034;-78
2024/02/20 00:30:51;;;;;;;11.93;5.30;;;;;;;;;;4990768;28;20034;-79
2024/02/20 00:33:16;;;;;;;9.07;5.15;;;;;;;;;;4991633;28;20411;-78
2024/02/20 00:35:42;;;;;;;9.48;4.80;;;;;;;;;;4990920;28;20046;-78
2024/02/20 00:38:07;;;;;;;7.90;4.60;;;;;;;;;;4991162;28;20502;-78
2024/02/20 00:40:32;;;;;;;10.75;5.13;;;;;;;;;;4990736;28;20060;-78
2024/02/20 00:42:57;;;;;;;16.35;6.13;;;;;;;;;;4991059;28;20089;-79
2024/02/20 00:45:22;;;;;;;11.73;5.60;;;;;;;;;;4991100;28;20450;-77
2024/02/20 00:47:47;;;;;;;13.93;6.43;;;;;;;;;;4989285;28;20273;-78
2024/02/20 00:50:14;;;;;;;11.00;5.40;;;;;;;;;;4991257;28;20038;-77
2024/02/20 00:52:40;;;;;;;9.38;5.13;;;;;;;;;;4989394;28;20058;-78
2024/02/20 00:55:05;;;;;;;11.48;5.05;;;;;;;;;;4991710;28;20061;-78
2024/02/20 00:57:31;;;;;;;10.48;5.40;;;;;;;;;;4994185;28;20384;-78
2024/02/20 00:59:57;;;;;;;8.30;5.53;;;;;;;;;;4993631;28;20046;-78
2024/02/20 01:02:22;;;;;;;10.38;5.13;;;;;;;;;;4994695;28;20042;-78
2024/02/20 01:04:48;;;;;;;11.80;5.65;;;;;;;;;;4994779;28;20026;-79
2024/02/20 01:07:13;;;;;;;9.32;5.50;;;;;;;;;;4995148;28;20041;-78
2024/02/20 01:09:38;;;;;;;13.48;6.20;;;;;;;;;;4994708;28;20117;-78
2024/02/20 01:12:03;;;;;;;9.70;4.78;;;;;;;;;;4995882;28;20026;-78
2024/02/20 01:14:30;;;;;;;10.27;5.22;;;;;;;;;;4994533;28;20037;-77
2024/02/20 01:16:55;;;;;;;14.82;6.50;;;;;;;;;;4993370;28;20045;-78
2024/02/20 01:19:20;;;;;;;12.73;6.65;;;;;;;;;;4994897;28;20034;-78
2024/02/20 01:21:46;;;;;;;12.93;5.93;;;;;;;;;;4994281;28;20023;-78
2024/02/20 01:24:11;;;;;;;8.70;5.38;;;;;;;;;;4994275;28;20045;-78
2024/02/20 01:26:40;;;;;;;14.68;6.05;;;;;;;;;;4993883;28;20066;-78
2024/02/20 01:29:05;;;;;;;15.18;5.30;;;;;;;;;;4993956;28;20048;-78
2024/02/20 01:31:32;;;;;;;14.38;6.18;;;;;;;;;;4993067;28;20027;-78
2024/02/20 01:33:57;;;;;;;14.95;5.18;;;;;;;;;;4993175;28;20034;-78
2024/02/20 01:36:23;;;;;;;11.30;6.00;;;;;;;;;;4994784;28;20033;-78
2024/02/20 01:38:48;;;;;;;11.43;5.25;;;;;;;;;;4993946;28;20088;-79
2024/02/20 01:41:13;;;;;;;9.50;5.97;;;;;;;;;;4993691;28;20085;-78
2024/02/20 01:43:38;;;;;;;10.27;5.22;;;;;;;;;;4999298;28;20035;-78
2024/02/20 01:46:04;;;;;;;12.40;6.03;;;;;;;;;;4994199;28;20034;-78
2024/02/20 01:48:29;;;;;;;11.38;5.18;;;;;;;;;;4994102;28;20088;-77
2024/02/20 01:50:55;;;;;;;12.10;6.30;;;;;;;;;;4993513;28;20038;-78
2024/02/20 01:53:22;;;;;;;16.73;6.38;;;;;;;;;;4994199;28;20038;-79
2024/02/20 01:55:47;;;;;;;11.68;5.82;;;;;;;;;;4993540;28;20038;-77
2024/02/20 01:58:13;;;;;;;16.20;7.07;;;;;;;;;;4993427;28;20030;-78
2024/02/20 02:00:39;;;;;;;15.98;6.10;;;;;;;;;;4988960;28;20027;-77
2024/02/20 02:03:05;;;;;;;13.25;6.22;;;;;;;;;;4993467;28;20108;-78
2024/02/20 02:05:30;;;;;;;12.52;6.28;;;;;;;;;;4993445;28;20582;-77
2024/02/20 02:07:58;;;;;;;12.68;6.13;;;;;;;;;;4992415;28;20031;-77
2024/02/20 02:10:24;;;;;;;12.02;5.80;;;;;;;;;;4993335;28;20057;-77
2024/02/20 02:12:49;;;;;;;13.70;6.68;;;;;;;;;;4993049;28;20060;-78
2024/02/20 02:15:14;;;;;;;14.10;7.25;;;;;;;;;;4992731;28;20042;-78
2024/02/20 02:17:39;;;;;;;12.93;6.65;;;;;;;;;;4992826;28;20037;-78
2024/02/20 02:20:06;;;;;;;16.00;6.88;;;;;;;;;;4992896;28;20391;-77
2024/02/20 02:22:31;;;;;;;16.90;7.47;;;;;;;;;;4992622;28;20149;-78
2024/02/20 02:24:56;;;;;;;13.07;7.15;;;;;;;;;;4992628;28;20213;-78
2024/02/20 02:27:21;;;;;;;13.45;7.22;;;;;;;;;;4993570;28;20026;-79
2024/02/20 02:29:47;;;;;;;22.92;8.02;;;;;;;;;;4993428;28;20431;-80
2024/02/20 02:32:12;;;;;;;13.35;7.38;;;;;;;;;;4995489;28;20038;-77
2024/02/20 02:34:37;;;;;;;12.27;6.68;;;;;;;;;;4992949;28;20026;-77
2024/02/20 02:37:02;;;;;;;12.00;6.38;;;;;;;;;;4992912;28;20132;-78
2024/02/20 02:39:27;;;;;;;13.40;7.68;;;;;;;;;;4992956;28;20034;-77
2024/02/20 02:41:53;;;;;;;13.75;6.88;;;;;;;;;;4991264;28;20038;-77
2024/02/20 02:44:18;;;;;;;13.98;7.30;;;;;;;;;;4992178;28;20038;-77
2024/02/20 02:46:44;;;;;;;16.10;7.28;;;;;;;;;;4992868;28;20023;-78
2024/02/20 02:49:09;;;;;;;18.17;8.00;;;;;;;;;;4993005;28;20027;-79
2024/02/20 02:51:34;;;;;;;12.25;6.82;;;;;;;;;;4992524;28;20479;-77
2024/02/20 02:54:00;;;;;;;16.00;7.15;;;;;;;;;;4992535;28;20121;-78
2024/02/20 02:56:25;;;;;;;14.20;7.90;;;;;;;;;;4991324;28;20042;-78
2024/02/20 02:58:50;;;;;;;13.00;8.15;;;;;;;;;;4992431;28;20049;-77
2024/02/20 03:01:16;;;;;;;15.93;8.20;;;;;;;;;;5003860;28;20037;-78
2024/02/20 03:03:41;;;;;;;16.70;8.95;;;;;;;;;;4992070;28;20027;-80
2024/02/20 03:06:08;;;;;;;17.42;9.20;;;;;;;;;;4995451;28;20499;-78
2024/02/20 03:08:33;;;;;;;15.57;9.88;;;;;;;;;;4992843;28;20066;-79
2024/02/20 03:10:59;;;;;;;19.05;11.55;;;;;;;;;;4991479;28;20463;-78
2024/02/20 03:13:24;;;;;;;21.40;10.18;;;;;;;;;;4996580;28;20525;-78
2024/02/20 03:15:49;;;;;;;20.38;10.13;;;;;;;;;;4992114;28;20168;-78
2024/02/20 03:18:15;;;;;;;16.15;9.57;;;;;;;;;;4991753;28;20133;-78
2024/02/20 03:20:40;;;;;;;21.30;11.10;;;;;;;;;;4991303;28;20080;-78
2024/02/20 03:23:06;;;;;;;17.50;10.18;;;;;;;;;;4992777;28;20034;-78
2024/02/20 03:25:31;;;;;;;16.48;9.60;;;;;;;;;;4993571;28;20498;-77
2024/02/20 03:27:56;;;;;;;18.63;10.07;;;;;;;;;;4992583;28;20035;-77
2024/02/20 03:30:22;;;;;;;16.73;9.75;;;;;;;;;;4991803;28;20033;-78
2024/02/20 03:32:50;;;;;;;21.48;9.98;;;;;;;;;;4992493;28;20030;-78
2024/02/20 03:35:21;;;;;;;17.58;9.45;;;;;;;;;;4992222;28;20092;-78
2024/02/20 03:37:47;;;;;;;17.25;9.55;;;;;;;;;;4991347;28;20034;-78
2024/02/20 03:40:13;;;;;;;18.30;8.02;;;;;;;;;;4994019;28;20410;-78
2024/02/20 03:42:38;;;;;;;14.93;8.77;;;;;;;;;;4993426;28;20030;-78
2024/02/20 03:45:05;;;;;;;17.88;9.52;;;;;;;;;;4992231;28;20041;-79
2024/02/20 03:47:31;;;;;;;14.90;8.55;;;;;;;;;;4990760;28;20929;-77
2024/02/20 03:49:56;;;;;;;17.05;9.40;;;;;;;;;;4991346;28;20034;-78
2024/02/20 03:52:21;;;;;;;14.80;8.20;;;;;;;;;;4993817;28;20037;-77
2024/02/20 03:54:46;;;;;;;17.23;8.90;;;;;;;;;;4992378;28;20053;-77
2024/02/20 03:57:11;;;;;;;14.73;8.15;;;;;;;;;;4991467;28;20030;-78
2024/02/20 03:59:37;;;;;;;17.85;9.27;;;;;;;;;;4990913;28;20072;-78
2024/02/20 04:02:02;;;;;;;15.68;8.77;;;;;;;;;;4990826;28;20096;-78
2024/02/20 04:04:29;;;;;;;16.10;9.02;;;;;;;;;;4990163;28;20026;-77
2024/02/20 04:06:54;;;;;;;17.15;9.50;;;;;;;;;;4991384;28;20045;-79
2024/02/20 04:09:19;;;;;;;14.43;8.77;;;;;;;;;;4990209;28;20023;-77
2024/02/20 04:11:45;;;;;;;15.85;8.40;;;;;;;;;;4989179;28;20104;-78
2024/02/20 04:14:10;;;;;;;12.43;8.23;;;;;;;;;;4990844;28;20034;-78
2024/02/20 04:16:35;;;;;;;17.83;9.57;;;;;;;;;;4991161;28;20107;-77
2024/02/20 04:19:00;;;;;;;17.08;9.98;;;;;;;;;;4990794;28;20030;-78
2024/02/20 04:21:25;;;;;;;13.85;8.48;;;;;;;;;;4990607;28;20045;-78
2024/02/20 04:23:51;;;;;;;15.75;8.98;;;;;;;;;;4990749;28;20026;-77
2024/02/20 04:26:16;;;;;;;17.20;8.23;;;;;;;;;;4991103;28;20034;-78
2024/02/20 04:28:41;;;;;;;16.35;8.95;;;;;;;;;;4990852;28;20018;-77
2024/02/20 04:31:07;;;;;;;13.55;8.10;;;;;;;;;;4989904;28;20092;-79
2024/02/20 04:33:32;;;;;;;14.93;7.65;;;;;;;;;;4994890;28;20096;-78
2024/02/20 04:35:57;;;;;;;15.98;9.00;;;;;;;;;;4990900;28;20042;-78
2024/02/20 04:38:22;;;;;;;13.82;7.90;;;;;;;;;;4990664;28;20027;-77
2024/02/20 04:40:51;;;;;;;13.98;7.60;;;;;;;;;;4990783;28;20041;-78
2024/02/20 04:43:17;;;;;;;15.20;7.65;;;;;;;;;;4991212;28;20085;-78
2024/02/20 04:45:42;;;;;;;14.35;7.65;;;;;;;;;;4990663;28;20483;-78
2024/02/20 04:48:07;;;;;;;12.70;7.47;;;;;;;;;;4990016;28;20065;-79
2024/02/20 04:50:33;;;;;;;14.30;7.15;;;;;;;;;;4990983;28;20031;-79
2024/02/20 04:52:58;;;;;;;13.57;8.05;;;;;;;;;;4991270;28;20039;-78
2024/02/20 04:55:26;;;;;;;9.50;7.10;;;;;;;;;;4986626;28;20372;-78
2024/02/20 04:57:51;;;;;;;12.23;7.75;;;;;;;;;;4990835;28;20042;-78
2024/02/20 05:00:16;;;;;;;13.45;7.65;;;;;;;;;;5006701;28;20031;-82
2024/02/20 05:02:42;;;;;;;11.43;7.40;;;;;;;;;;4990791;28;20077;-79
2024/02/20 05:05:07;;;;;;;12.98;7.25;;;;;;;;;;4990752;28;20030;-79
2024/02/20 05:07:33;;;;;;;12.40;6.72;;;;;;;;;;4991321;28;20018;-79
2024/02/20 05:09:58;;;;;;;11.80;6.80;;;;;;;;;;4989107;28;20595;-79
2024/02/20 05:12:23;;;;;;;13.30;6.97;;;;;;;;;;4990679;28;20042;-79
2024/02/20 05:14:49;;;;;;;10.68;6.10;;;;;;;;;;4990469;28;20030;-78
2024/02/20 05:17:14;;;;;;;9.38;6.25;;;;;;;;;;4986808;28;20058;-78
2024/02/20 05:19:39;;;;;;;10.60;7.03;;;;;;;;;;4986257;28;20038;-78
2024/02/20 05:22:06;;;;;;;10.85;5.60;;;;;;;;;;4986244;28;20114;-80
2024/02/20 05:24:34;;;;;;;9.80;6.55;;;;;;;;;;4988790;28;20077;-78
2024/02/20 05:27:00;;;;;;;10.38;5.78;;;;;;;;;;4984061;28;20058;-78
2024/02/20 05:29:25;;;;;;;10.35;6.07;;;;;;;;;;4983027;28;20069;-78
2024/02/20 05:31:50;;;;;;;11.82;5.88;;;;;;;;;;4985511;28;20038;-78
2024/02/20 05:34:15;;;;;;;11.80;6.50;;;;;;;;;;4985427;28;20038;-78
2024/02/20 05:36:40;;;;;;;11.05;6.43;;;;;;;;;;4988190;28;20107;-78
2024/02/20 05:39:07;;;;;;;11.18;6.68;;;;;;;;;;4990511;28;20285;-78
2024/02/20 05:41:33;;;;;;;9.30;5.90;;;;;;;;;;4990044;28;20023;-78
2024/02/20 05:43:59;;;;;;;8.88;5.40;;;;;;;;;;4993819;28;20045;-78
2024/02/20 05:46:25;;;;;;;9.50;5.80;;;;;;;;;;4994219;28;20124;-79
2024/02/20 05:48:50;;;;;;;8.90;5.60;;;;;;;;;;4993596;28;20030;-78
2024/02/20 05:51:16;;;;;;;11.85;5.45;;;;;;;;;;4993541;28;20093;-78
2024/02/20 05:53:42;;;;;;;10.07;5.28;;;;;;;;;;4993691;28;20026;-80
2024/02/20 05:56:08;;;;;;;8.80;4.72;;;;;;;;;;4994005;28;20037;-78
2024/02/20 05:58:33;;;;;;;6.78;3.63;;;;;;;;;;4993649;28;20093;-79
2024/02/20 06:00:58;;;;;;;5.72;3.47;;;;;;;;;;4993398;28;20118;-79
2024/02/20 06:03:23;;;;;;;5.00;2.85;;;;;;;;;;4992582;28;20045;-78
2024/02/20 06:05:48;;;;;;;5.68;2.22;;;;;;;;;;4994054;28;20049;-78
2024/02/20 06:08:13;;;;;;;4.00;2.00;;;;;;;;;;4991931;28;20034;-78
2024/02/20 06:10:39;;;;;;;4.63;1.90;;;;;;;;;;4994165;28;20088;-78
2024/02/20 06:13:04;;;;;;;5.45;1.92;;;;;;;;;;4993842;28;20064;-80
2024/02/20 06:15:29;;;;;;;4.20;1.95;;;;;;;;;;4991872;28;20042;-79
2024/02/20 06:17:54;;;;;;;3.30;1.58;;;;;;;;;;4992006;28;20446;-79
2024/02/20 06:20:19;;;;;;;4.18;1.85;;;;;;;;;;4992918;28;20042;-78
2024/02/20 06:22:44;;;;;;;3.40;1.50;;;;;;;;;;4991910;28;20495;-79
2024/02/20 06:25:10;;;;;;;5.40;1.38;;;;;;;;;;4993345;28;20031;-78
2024/02/20 06:27:35;;;;;;;4.78;1.67;;;;;;;;;;4993430;28;20034;-78
2024/02/20 06:30:00;;;;;;;3.33;1.10;;;;;;;;;;4992622;28;20105;-79
2024/02/20 06:32:25;;;;;;;4.65;1.08;;;;;;;;;;4992873;28;20026;-79
2024/02/20 06:34:51;;;;;;;4.13;1.30;;;;;;;;;;4995042;28;20031;-79
2024/02/20 06:37:16;;;;;;;4.05;1.67;;;;;;;;;;4993093;28;20041;-78
2024/02/20 06:39:41;;;;;;;3.15;1.15;;;;;;;;;;4992746;28;20034;-79
2024/02/20 06:42:06;;;;;;;3.17;1.30;;;;;;;;;;4992409;28;20289;-79
2024/02/20 06:44:31;;;;;;;2.80;1.42;;;;;;;;;;4992287;28;20026;-79
2024/02/20 06:46:56;;;;;;;3.88;1.60;;;;;;;;;;4991649;28;20026;-80
2024/02/20 06:49:22;;;;;;;4.50;1.63;;;;;;;;;;4993014;28;20026;-79
2024/02/20 06:51:47;;;;;;;3.00;1.33;;;;;;;;;;4992461;28;20031;-80
2024/02/20 06:54:12;;;;;;;4.20;1.52;;;;;;;;;;4992593;28;20038;-79
2024/02/20 06:56:37;;;;;;;3.40;1.67;;;;;;;;;;4996661;28;20458;-79
2024/02/20 06:59:02;;;;;;;4.10;1.80;;;;;;;;;;4992083;28;20121;-80
2024/02/20 07:01:28;;;;;;;4.10;2.30;;;;;;;;;;4992594;28;20084;-79
2024/02/20 07:03:53;;;;;;;3.63;1.60;;;;;;;;;;4991019;28;20049;-80
2024/02/20 07:06:19;;;;;;;5.45;1.88;;;;;;;;;;4992942;28;20116;-80
2024/02/20 07:08:44;;;;;;;5.50;1.95;;;;;;;;;;4992663;28;20077;-79
2024/02/20 07:11:13;;;;;;;4.05;2.20;;;;;;;;;;4992649;28;20026;-80
2024/02/20 07:13:38;;;;;;;4.32;2.17;;;;;;;;;;4992352;28;20061;-79
2024/02/20 07:16:06;;;;;;;5.32;2.60;;;;;;;;;;4992818;28;20494;-80
2024/02/20 07:18:31;;;;;;;6.63;2.03;;;;;;;;;;4991031;28;20525;-79
2024/02/20 07:20:57;;;;;;;6.30;2.55;;;;;;;;;;4991574;28;20113;-79
2024/02/20 07:23:22;;;;;;;7.40;2.65;;;;;;;;;;4996635;28;20514;-78
2024/02/20 07:25:48;;;;;;;6.35;2.65;;;;;;;;;;4993044;28;20034;-78
2024/02/20 07:28:13;;;;;;;4.22;2.33;;;;;;;;;;4991904;28;20403;-78
2024/02/20 07:30:38;;;;;;;6.90;2.95;;;;;;;;;;4991253;28;20089;-78
2024/02/20 07:33:03;;;;;;;6.40;2.85;;;;;;;;;;4991673;28;20418;-77
2024/02/20 07:35:28;;;;;;;7.22;2.42;;;;;;;;;;4991384;28;20031;-77
2024/02/20 07:37:53;;;;;;;5.88;3.17;;;;;;;;;;4992312;28;20034;-79
2024/02/20 07:40:19;;;;;;;7.57;3.78;;;;;;;;;;4991954;28;20042;-78
2024/02/20 07:42:44;;;;;;;9.23;3.22;;;;;;;;;;4990482;28;20044;-77
2024/02/20 07:45:09;;;;;;;6.80;3.05;;;;;;;;;;4991232;28;20034;-79
2024/02/20 07:47:35;;;;;;;9.63;3.50;;;;;;;;;;4983456;28;20033;-78
2024/02/20 07:50:00;;;;;;;8.32;3.65;;;;;;;;;;4990434;28;20113;-79
2024/02/20 07:52:25;;;;;;;6.38;2.90;;;;;;;;;;4992645;28;20033;-79
2024/02/20 07:54:50;;;;;;;5.55;2.88;;;;;;;;;;4989637;28;20073;-78
2024/02/20 07:57:16;;;;;;;6.70;3.50;;;;;;;;;;4991675;28;20443;-79
2024/02/20 07:59:41;;;;;;;5.45;2.90;;;;;;;;;;4990071;28;20101;-78
2024/02/20 08:02:09;;;;;;;6.03;2.65;;;;;;;;;;4986310;28;20476;-79
2024/02/20 08:04:34;;;;;;;6.18;2.90;;;;;;;;;;4990933;28;20101;-79
2024/02/20 08:06:59;;;;;;;5.60;2.85;;;;;;;;;;4991378;28;20113;-79
2024/02/20 08:09:24;;;;;;;6.07;2.35;;;;;;;;;;4991267;28;20034;-79
2024/02/20 08:11:50;;;;;;;7.47;3.45;;;;;;;;;;4993391;28;20090;-78
2024/02/20 08:14:17;;;;;;;4.40;2.17;;;;;;;;;;4989689;28;20042;-79
2024/02/20 08:16:44;;;;;;;6.00;2.30;;;;;;;;;;4991494;28;20501;-79
2024/02/20 08:19:09;;;;;;;3.90;2.05;;;;;;;;;;4991035;28;20038;-80
2024/02/20 08:21:35;;;;;;;4.05;1.92;;;;;;;;;;4992665;28;20028;-79
2024/02/20 08:24:01;;;;;;;4.65;1.85;;;;;;;;;;4991145;28;20042;-79
2024/02/20 08:26:26;;;;;;;5.10;1.98;;;;;;;;;;4991659;28;20037;-80
2024/02/20 08:28:51;;;;;;;5.70;1.75;;;;;;;;;;4991669;28;20026;-78
2024/02/20 08:31:18;;;;;;;4.30;1.52;;;;;;;;;;4995310;28;20029;-79
2024/02/20 08:33:44;;;;;;;3.35;1.40;;;;;;;;;;4991269;28;20035;-79
2024/02/20 08:36:09;;;;;;;4.25;1.77;;;;;;;;;;4991748;28;20056;-78
2024/02/20 08:38:35;;;;;;;4.07;1.63;;;;;;;;;;4991655;28;20038;-78
2024/02/20 08:41:00;;;;;;;3.25;1.42;;;;;;;;;;4992433;28;20104;-80
2024/02/20 08:43:25;;;;;;;4.72;1.63;;;;;;;;;;4983900;28;20105;-79
2024/02/20 08:45:50;;;;;;;5.05;1.60;;;;;;;;;;4991644;28;20031;-79
2024/02/20 08:48:15;;;;;;;5.97;1.70;;;;;;;;;;4991325;28;20105;-78
2024/02/20 08:50:40;;;;;;;4.88;1.63;;;;;;;;;;4990304;28;20491;-79
2024/02/20 08:53:10;;;;;;;6.00;2.00;;;;;;;;;;4988965;28;20566;-80
2024/02/20 08:55:35;;;;;;;4.53;1.77;;;;;;;;;;4990498;28;20103;-79
2024/02/20 08:58:00;;;;;;;2.95;1.30;;;;;;;;;;4991276;28;20466;-80
2024/02/20 09:00:26;;;;;;;4.65;1.42;;;;;;;;;;4990816;28;20045;-80
2024/02/20 09:02:51;;;;;;;4.05;1.33;;;;;;;;;;4991133;28;20027;-79
2024/02/20 09:05:16;;;;;;;2.72;1.40;;;;;;;;;;4992349;28;20019;-79
2024/02/20 09:07:42;;;;;;;6.13;1.90;;;;;;;;;;4992728;28;20022;-79
2024/02/20 09:10:07;;;;;;;3.63;1.25;;;;;;;;;;4989911;28;20487;-80
2024/02/20 09:12:33;;;;;;;3.35;1.25;;;;;;;;;;4999558;28;20034;-80
2024/02/20 09:15:00;;;;;;;3.38;0.90;;;;;;;;;;4990766;28;20058;-79
2024/02/20 09:17:25;;;;;;;6.78;1.50;;;;;;;;;;4997965;28;20033;-79
2024/02/20 09:19:50;;;;;;;6.80;1.63;;;;;;;;;;4994378;28;20040;-81
2024/02/20 09:22:16;;;;;;;6.75;1.55;;;;;;;;;;4993164;28;20498;-80
2024/02/20 09:24:41;;;;;;;4.53;1.83;;;;;;;;;;4994546;28;20100;-80
2024/02/20 09:27:06;;;;;;;6.75;1.92;;;;;;;;;;4996318;28;20030;-79
2024/02/20 09:29:31;;;;;;;7.13;1.58;;;;;;;;;;4995578;28;20460;-80
2024/02/20 09:32:00;;;;;;;6.53;1.50;;;;;;;;;;4993733;28;20503;-79
2024/02/20 09:34:25;;;;;;;5.22;1.60;;;;;;;;;;4993885;28;20033;-78
2024/02/20 09:36:51;;;;;;;8.20;1.77;;;;;;;;;;4993803;28;20458;-78
2024/02/20 09:39:16;;;;;;;5.18;1.45;;;;;;;;;;5002478;28;20038;-77
2024/02/20 09:41:41;;;;;;;5.18;1.60;;;;;;;;;;4993394;28;20426;-78
2024/02/20 09:44:08;;;;;;;6.85;1.55;;;;;;;;;;4998975;28;20110;-77
2024/02/20 09:46:43;;;;;;;7.05;1.75;;;;;;;;;;4993503;28;20050;-77
2024/02/20 09:49:09;;;;;;;11.77;1.98;;;;;;;;;;4993250;28;20026;-77
2024/02/20 09:51:35;;;;;;;11.63;2.28;;;;;;;;;;4992034;28;20036;-77
2024/02/20 09:54:01;;;;;;;15.73;3.33;;;;;;;;;;4991953;28;20422;-77
2024/02/20 09:56:26;;;;;;;13.15;2.17;;;;;;;;;;4993600;28;20034;-77
2024/02/20 09:58:51;;;;;;;8.10;1.67;;;;;;;;;;4992987;28;20034;-78
2024/02/20 10:01:17;;;;;;;15.38;2.08;;;;;;;;;;4992967;28;20537;-78
2024/02/20 10:03:44;;;;;;;17.45;2.65;;;;;;;;;;4993310;28;20030;-77
2024/02/20 10:06:12;;;;;;;12.45;2.10;;;;;;;;;;4991259;28;20026;-77
2024/02/20 10:08:37;;;;;;;11.90;2.03;;;;;;;;;;4991301;28;20026;-77
2024/02/20 10:11:03;;;;;;;15.70;2.97;;;;;;;;;;4990166;28;20030;-77
2024/02/20 10:13:28;;;;;;;18.70;2.38;;;;;;;;;;4993146;28;20030;-77
2024/02/20 10:16:03;;;;;;;13.27;2.10;;;;;;;;;;4991589;28;20034;-78
2024/02/20 10:18:28;;;;;;;13.15;2.20;;;;;;;;;;4993095;28;20031;-78
2024/02/20 10:21:00;;;;;;;10.82;2.08;;;;;;;;;;4992453;28;20505;-78
2024/02/20 10:23:25;;;;;;;22.10;4.05;;;;;;;;;;4992571;28;20086;-79
2024/02/20 10:25:55;;;;;;;16.92;2.75;;;;;;;;;;4992815;28;20072;-77
2024/02/20 10:28:20;;;;;;;16.83;2.67;;;;;;;;;;4993813;28;20038;-78
2024/02/20 10:30:45;;;;;;;11.63;2.40;;;;;;;;;;4992608;28;20030;-78
2024/02/20 10:33:10;;;;;;;12.85;2.30;;;;;;;;;;4996080;28;20040;-78
2024/02/20 10:35:40;;;;;;;12.07;2.03;;;;;;;;;;4992692;28;20026;-79
2024/02/20 10:38:05;;;;;;;10.07;2.67;;;;;;;;;;4991853;28;20411;-79
2024/02/20 10:40:30;;;;;;;13.80;2.13;;;;;;;;;;4994224;28;20073;-78
2024/02/20 10:42:59;;;;;;;12.25;2.45;;;;;;;;;;4992831;28;20048;-78
2024/02/20 10:45:25;;;;;;;11.50;1.98;;;;;;;;;;4992513;28;20097;-77
2024/02/20 10:47:52;;;;;;;12.25;2.15;;;;;;;;;;4994041;28;20034;-78
2024/02/20 10:50:17;;;;;;;12.13;1.80;;;;;;;;;;4992606;28;20030;-81
2024/02/20 10:52:44;;;;;;;11.75;2.22;;;;;;;;;;4993002;28;20384;-78
2024/02/20 10:55:12;;;;;;;14.73;2.22;;;;;;;;;;4992763;28;20030;-78
2024/02/20 10:57:38;;;;;;;16.73;3.20;;;;;;;;;;4994637;28;20038;-79
2024/02/20 11:00:08;;;;;;;14.55;2.55;;;;;;;;;;4990752;28;20030;-79
2024/02/20 11:02:35;;;;;;;11.35;1.85;;;;;;;;;;4994220;28;20038;-79
2024/02/20 11:05:01;;;;;;;14.52;2.83;;;;;;;;;;4998343;28;20027;-78
2024/02/20 11:07:26;;;;;;;15.73;3.28;;;;;;;;;;5004325;28;20026;-80
2024/02/20 11:10:27;;;;;;;15.23;2.30;;;;;;;;;;4993933;28;20030;-80
2024/02/20 11:12:52;;;;;;;10.57;2.97;;;;;;;;;;4954023;28;20039;-80
2024/02/20 11:15:21;;;;;;;20.27;3.10;;;;;;;;;;4983546;28;20117;-79
2024/02/20 11:17:47;;;;;;;16.88;2.70;;;;;;;;;;4990368;28;20033;-79
2024/02/20 11:20:21;;;;;;;10.68;2.65;;;;;;;;;;4990107;28;20030;-80
2024/02/20 11:22:50;;;;;;;12.90;2.47;;;;;;;;;;4989536;28;20042;-79
2024/02/20 11:25:28;;;;;;;11.80;1.92;;;;;;;;;;4990114;28;20159;-79
2024/02/20 11:27:54;;;;;;;14.25;3.67;;;;;;;;;;4989327;28;20515;-79
2024/02/20 11:30:20;;;;;;;13.48;2.70;;;;;;;;;;4984267;28;20022;-80
2024/02/20 11:32:46;;;;;;;14.82;3.03;;;;;;;;;;4985747;28;20129;-80
2024/02/20 11:35:27;;;;;;;19.10;3.10;;;;;;;;;;4986340;28;20053;-79
2024/02/20 11:37:54;;;;;;;15.20;3.25;;;;;;;;;;4988407;28;20030;-80
2024/02/20 11:40:29;;;;;;;12.95;2.00;;;;;;;;;;4989195;28;20526;-79
2024/02/20 11:42:57;;;;;;;12.52;2.70;;;;;;;;;;4985825;28;20499;-79
2024/02/20 11:45:24;;;;;;;13.20;2.72;;;;;;;;;;4988558;28;20037;-79
2024/02/20 11:47:59;;;;;;;13.90;2.28;;;;;;;;;;4990369;28;20034;-80
2024/02/20 11:50:25;;;;;;;18.88;2.92;;;;;;;;;;4989791;28;20117;-79
2024/02/20 11:53:00;;;;;;;13.93;3.00;;;;;;;;;;4996164;28;20109;-79
2024/02/20 11:55:26;;;;;;;11.73;2.40;;;;;;;;;;4988672;28;20065;-78
2024/02/20 11:57:51;;;;;;;17.77;2.83;;;;;;;;;;4991531;28;20132;-78
2024/02/20 12:00:17;;;;;;;11.38;2.63;;;;;;;;;;4991264;28;20038;-79
2024/02/20 12:02:42;;;;;;;10.95;2.20;;;;;;;;;;4991420;28;20022;-78
2024/02/20 12:05:08;;;;;;;12.77;2.60;;;;;;;;;;4989784;28;21935;-79
2024/02/20 12:07:34;;;;;;;12.00;2.80;;;;;;;;;;4990073;28;20026;-79
2024/02/20 12:10:00;;;;;;;18.35;2.92;;;;;;;;;;4990969;28;20034;-79
2024/02/20 12:12:26;;;;;;;16.25;2.80;;;;;;;;;;4987897;28;20078;-78
2024/02/20 12:15:03;;;;;;;16.67;3.17;;;;;;;;;;4989176;28;20030;-79
2024/02/20 12:17:37;;;;;;;13.48;2.90;;;;;;;;;;4991168;28;20057;-79
2024/02/20 12:20:04;;;;;;;18.67;2.97;;;;;;;;;;4989257;28;20121;-78
2024/02/20 12:22:29;;;;;;;13.40;2.78;;;;;;;;;;4990648;28;20026;-79
2024/02/20 12:25:03;;;;;;;13.35;2.30;;;;;;;;;;4991657;28;20105;-78
2024/02/20 12:27:29;;;;;;;14.50;3.38;;;;;;;;;;4990577;28;20097;-79
2024/02/20 12:29:54;;;;;;;25.60;3.67;;;;;;;;;;4993399;28;20628;-79
2024/02/20 12:32:19;;;;;;;11.48;2.78;;;;;;;;;;4990362;28;20296;-80
2024/02/20 12:34:44;;;;;;;14.43;3.10;;;;;;;;;;4989512;28;20525;-79
2024/02/20 12:37:09;;;;;;;16.55;3.47;;;;;;;;;;4990966;28;20273;-79
2024/02/20 12:39:35;;;;;;;11.10;2.55;;;;;;;;;;4990917;28;20513;-79
2024/02/20 12:42:00;;;;;;;16.52;3.63;;;;;;;;;;4989179;28;20459;-78
2024/02/20 12:44:25;;;;;;;13.13;2.63;;;;;;;;;;4997092;28;20036;-78
2024/02/20 12:46:50;;;;;;;15.82;2.95;;;;;;;;;;4989462;28;20033;-79
2024/02/20 12:49:16;;;;;;;13.45;2.88;;;;;;;;;;5004402;28;20034;-79
2024/02/20 12:51:41;;;;;;;15.27;3.38;;;;;;;;;;4991490;28;20039;-79
2024/02/20 12:54:06;;;;;;;13.63;2.90;;;;;;;;;;4994691;28;20062;-78
2024/02/20 12:56:32;;;;;;;14.68;2.67;;;;;;;;;;4994918;28;20088;-79
2024/02/20 12:58:57;;;;;;;17.27;4.70;;;;;;;;;;4994298;28;20038;-79
2024/02/20 13:01:22;;;;;;;16.10;3.47;;;;;;;;;;4994410;28;20065;-79
2024/02/20 13:03:47;;;;;;;15.13;3.33;;;;;;;;;;4993114;28;20125;-79
2024/02/20 13:06:13;;;;;;;18.95;4.55;;;;;;;;;;4994666;28;20031;-79
2024/02/20 13:08:38;;;;;;;18.73;3.67;;;;;;;;;;4998997;28;20394;-79
2024/02/20 13:11:06;;;;;;;14.50;3.75;;;;;;;;;;4995837;28;20513;-78
2024/02/20 13:13:31;;;;;;;19.95;3.97;;;;;;;;;;4991063;28;20045;-78
2024/02/20 13:15:56;;;;;;;17.42;3.05;;;;;;;;;;4993690;28;20487;-79
2024/02/20 13:18:21;;;;;;;18.48;3.85;;;;;;;;;;4993455;28;20084;-79
2024/02/20 13:20:48;;;;;;;16.15;3.25;;;;;;;;;;4997503;28;20025;-79
2024/02/20 13:23:13;;;;;;;18.20;3.25;;;;;;;;;;4995076;28;20475;-78
2024/02/20 13:25:38;;;;;;;20.25;3.92;;;;;;;;;;4994104;28;20022;-78
2024/02/20 13:28:06;;;;;;;22.42;4.47;;;;;;;;;;4998125;28;20034;-79
2024/02/20 13:30:32;;;;;;;14.57;2.85;;;;;;;;;;4993502;28;20026;-78
2024/02/20 13:32:57;;;;;;;17.55;3.70;;;;;;;;;;4993860;28;20117;-78
2024/02/20 13:35:22;;;;;;;15.38;3.60;;;;;;;;;;5001245;28;20030;-79
2024/02/20 13:37:47;;;;;;;15.90;3.35;;;;;;;;;;4992876;28;20113;-79
2024/02/20 13:40:13;;;;;;;21.98;3.08;;;;;;;;;;4993776;28;20031;-78
2024/02/20 13:42:38;;;;;;;15.93;3.00;;;;;;;;;;4996667;28;20379;-78
2024/02/20 13:45:03;;;;;;;16.80;3.17;;;;;;;;;;4992457;28;20026;-79
2024/02/20 13:47:30;;;;;;;15.82;3.42;;;;;;;;;;4993708;28;20105;-78
2024/02/20 13:49:55;;;;;;;19.65;3.88;;;;;;;;;;4992239;28;20064;-79
2024/02/20 13:52:20;;;;;;;17.02;2.85;;;;;;;;;;4994821;28;20038;-79
2024/02/20 13:54:45;;;;;;;16.25;3.15;;;;;;;;;;4995108;28;20037;-79
2024/02/20 13:57:10;;;;;;;15.63;2.70;;;;;;;;;;4993600;28;20061;-79
2024/02/20 13:59:35;;;;;;;17.63;3.03;;;;;;;;;;4993353;28;20061;-78
2024/02/20 14:02:03;;;;;;;11.27;2.67;;;;;;;;;;4992645;28;20030;-78
2024/02/20 14:04:28;;;;;;;15.13;2.45;;;;;;;;;;4999430;28;20301;-78
2024/02/20 14:06:53;;;;;;;11.63;2.90;;;;;;;;;;4993634;28;20033;-78
2024/02/20 14:09:19;;;;;;;12.20;2.83;;;;;;;;;;4991599;28;20049;-78
2024/02/20 14:11:44;;;;;;;18.25;4.25;;;;;;;;;;4993265;28;20018;-78
2024/02/20 14:14:09;;;;;;;17.35;3.22;;;;;;;;;;4993186;28;20480;-78
2024/02/20 14:16:36;;;;;;;12.60;2.78;;;;;;;;;;4992191;28;20080;-78
2024/02/20 14:19:01;;;;;;;21.35;4.53;;;;;;;;;;4992972;28;20121;-79
2024/02/20 14:21:27;;;;;;;13.32;2.85;;;;;;;;;;4994119;28;20507;-78
2024/02/20 14:23:52;;;;;;;11.63;2.65;;;;;;;;;;4993017;28;20031;-79
2024/02/20 14:26:17;;;;;;;12.50;3.00;;;;;;;;;;5007074;28;20092;-79